sensor_id;sensor_type;location;lat;lon;timestamp;pressure;altitude;pressure_sealevel;temperature;humidity
45327;BME280;31062;49.678;24.560;2023-12-20T00:02:35;97797.50;;;5.96;57.83
45327;BME280;31062;49.678;24.560;2023-12-20T00:05:41;97779.88;;;5.84;57.72
45327;BME280;31062;49.678;24.560;2023-12-20T00:08:47;97786.31;;;5.94;57.78
45327;BME280;31062;49.678;24.560;2023-12-20T00:11:53;97796.38;;;5.99;57.75
45327;BME280;31062;49.678;24.560;2023-12-20T00:15:00;97792.88;;;5.98;57.76
45327;BME280;31062;49.678;24.560;2023-12-20T00:18:07;97792.00;;;5.96;57.25
45327;BME280;31062;49.678;24.560;2023-12-20T00:21:12;97783.00;;;5.95;57.44
45327;BME280;31062;49.678;24.560;2023-12-20T00:24:18;97778.59;;;5.92;57.28
45327;BME280;31062;49.678;24.560;2023-12-20T00:27:24;97783.72;;;5.96;57.05
45327;BME280;31062;49.678;24.560;2023-12-20T00:30:31;97777.50;;;5.95;56.98
45327;BME280;31062;49.678;24.560;2023-12-20T00:33:37;97770.34;;;5.92;56.98
45327;BME280;31062;49.678;24.560;2023-12-20T00:36:43;97766.13;;;5.91;57.37
45327;BME280;31062;49.678;24.560;2023-12-20T00:39:48;97764.50;;;5.88;57.39
45327;BME280;31062;49.678;24.560;2023-12-20T00:42:54;97669.50;;;5.24;57.02
45327;BME280;31062;49.678;24.560;2023-12-20T00:46:00;97762.81;;;5.85;57.10
45327;BME280;31062;49.678;24.560;2023-12-20T00:49:06;97751.66;;;5.83;57.69
45327;BME280;31062;49.678;24.560;2023-12-20T00:52:12;97749.47;;;5.74;57.45
45327;BME280;31062;49.678;24.560;2023-12-20T00:55:18;97746.38;;;5.62;58.15
45327;BME280;31062;49.678;24.560;2023-12-20T00:58:24;97751.16;;;5.54;58.54
45327;BME280;31062;49.678;24.560;2023-12-20T01:01:30;97740.34;;;5.49;58.20
45327;BME280;31062;49.678;24.560;2023-12-20T01:04:35;97732.69;;;5.47;58.46
45327;BME280;31062;49.678;24.560;2023-12-20T01:07:41;97722.97;;;5.39;59.04
45327;BME280;31062;49.678;24.560;2023-12-20T01:10:47;97716.38;;;5.34;59.04
45327;BME280;31062;49.678;24.560;2023-12-20T01:13:53;97715.47;;;5.31;58.82
45327;BME280;31062;49.678;24.560;2023-12-20T01:16:59;97701.72;;;5.31;59.06
45327;BME280;31062;49.678;24.560;2023-12-20T01:20:05;97690.38;;;5.35;59.13
45327;BME280;31062;49.678;24.560;2023-12-20T01:23:11;97688.50;;;5.38;59.39
45327;BME280;31062;49.678;24.560;2023-12-20T01:26:17;97688.16;;;5.33;59.15
45327;BME280;31062;49.678;24.560;2023-12-20T01:29:22;97692.19;;;5.32;59.14
45327;BME280;31062;49.678;24.560;2023-12-20T01:32:29;97676.97;;;5.31;59.48
45327;BME280;31062;49.678;24.560;2023-12-20T01:35:35;97677.19;;;5.33;59.48
45327;BME280;31062;49.678;24.560;2023-12-20T01:38:41;97665.84;;;5.29;59.30
45327;BME280;31062;49.678;24.560;2023-12-20T01:41:50;97651.56;;;5.23;59.54
45327;BME280;31062;49.678;24.560;2023-12-20T01:44:56;97651.94;;;5.12;59.93
45327;BME280;31062;49.678;24.560;2023-12-20T01:48:02;97645.38;;;5.00;60.17
45327;BME280;31062;49.678;24.560;2023-12-20T01:51:09;97650.88;;;4.85;60.57
45327;BME280;31062;49.678;24.560;2023-12-20T01:54:17;97643.75;;;4.74;61.15
45327;BME280;31062;49.678;24.560;2023-12-20T01:57:24;97636.97;;;4.68;61.43
45327;BME280;31062;49.678;24.560;2023-12-20T02:00:30;97558.50;;;4.04;61.69
45327;BME280;31062;49.678;24.560;2023-12-20T02:03:36;97628.75;;;4.53;61.60
45327;BME280;31062;49.678;24.560;2023-12-20T02:06:43;97634.06;;;4.50;61.96
45327;BME280;31062;49.678;24.560;2023-12-20T02:09:51;97629.66;;;4.47;62.13
45327;BME280;31062;49.678;24.560;2023-12-20T02:12:58;97613.94;;;4.40;62.34
45327;BME280;31062;49.678;24.560;2023-12-20T02:16:03;97606.59;;;4.35;62.29
45327;BME280;31062;49.678;24.560;2023-12-20T02:19:14;97616.50;;;4.38;62.25
45327;BME280;31062;49.678;24.560;2023-12-20T02:22:23;97607.34;;;4.28;62.90
45327;BME280;31062;49.678;24.560;2023-12-20T02:25:29;97599.28;;;4.15;62.96
45327;BME280;31062;49.678;24.560;2023-12-20T02:28:35;97597.09;;;4.21;63.26
45327;BME280;31062;49.678;24.560;2023-12-20T02:31:41;97434.66;;;3.09;63.03
45327;BME280;31062;49.678;24.560;2023-12-20T02:34:47;97522.44;;;3.62;63.27
45327;BME280;31062;49.678;24.560;2023-12-20T02:37:53;97598.00;;;4.16;63.26
45327;BME280;31062;49.678;24.560;2023-12-20T02:40:59;97582.06;;;4.07;62.94
45327;BME280;31062;49.678;24.560;2023-12-20T02:44:05;97589.41;;;4.12;62.86
45327;BME280;31062;49.678;24.560;2023-12-20T02:47:11;97586.09;;;4.06;63.52
45327;BME280;31062;49.678;24.560;2023-12-20T02:50:18;97584.25;;;4.01;63.21
45327;BME280;31062;49.678;24.560;2023-12-20T02:53:24;97587.19;;;3.95;62.59
45327;BME280;31062;49.678;24.560;2023-12-20T02:56:31;97572.00;;;3.87;63.00
45327;BME280;31062;49.678;24.560;2023-12-20T02:59:37;97575.84;;;3.91;63.77
45327;BME280;31062;49.678;24.560;2023-12-20T03:02:43;97576.94;;;3.96;63.21
45327;BME280;31062;49.678;24.560;2023-12-20T03:05:48;97571.47;;;3.96;63.25
45327;BME280;31062;49.678;24.560;2023-12-20T03:08:55;97575.13;;;3.91;63.22
45327;BME280;31062;49.678;24.560;2023-12-20T03:12:01;97571.81;;;3.85;63.25
45327;BME280;31062;49.678;24.560;2023-12-20T03:15:07;97564.47;;;3.72;63.28
45327;BME280;31062;49.678;24.560;2023-12-20T03:18:14;97571.41;;;3.65;63.32
45327;BME280;31062;49.678;24.560;2023-12-20T03:21:19;97570.69;;;3.57;63.63
45327;BME280;31062;49.678;24.560;2023-12-20T03:24:25;97565.69;;;3.48;63.32
45327;BME280;31062;49.678;24.560;2023-12-20T03:27:31;97554.53;;;3.39;63.95
45327;BME280;31062;49.678;24.560;2023-12-20T03:30:37;97559.25;;;3.31;64.17
45327;BME280;31062;49.678;24.560;2023-12-20T03:33:44;97557.03;;;3.29;64.37
45327;BME280;31062;49.678;24.560;2023-12-20T03:36:49;97561.78;;;3.21;64.07
45327;BME280;31062;49.678;24.560;2023-12-20T03:39:56;97558.22;;;2.98;64.62
45327;BME280;31062;49.678;24.560;2023-12-20T03:43:01;97523.09;;;2.53;65.77
45327;BME280;31062;49.678;24.560;2023-12-20T03:46:10;97564.63;;;2.72;65.97
45327;BME280;31062;49.678;24.560;2023-12-20T03:49:15;97560.06;;;2.74;66.16
45327;BME280;31062;49.678;24.560;2023-12-20T03:52:01;97562.69;;;2.80;66.53
45327;BME280;31062;49.678;24.560;2023-12-20T03:54:47;97564.13;;;2.81;66.34
45327;BME280;31062;49.678;24.560;2023-12-20T03:57:34;97555.38;;;2.82;66.21
45327;BME280;31062;49.678;24.560;2023-12-20T04:00:39;97554.13;;;2.83;66.05
45327;BME280;31062;49.678;24.560;2023-12-20T04:03:45;97553.19;;;2.81;66.08
45327;BME280;31062;49.678;24.560;2023-12-20T04:06:51;97559.38;;;2.74;66.30
45327;BME280;31062;49.678;24.560;2023-12-20T04:09:57;97553.16;;;2.73;66.23
45327;BME280;31062;49.678;24.560;2023-12-20T04:13:03;97552.38;;;2.65;66.63
45327;BME280;31062;49.678;24.560;2023-12-20T04:16:09;97551.59;;;2.57;66.90
45327;BME280;31062;49.678;24.560;2023-12-20T04:19:15;97559.78;;;2.57;66.98
45327;BME280;31062;49.678;24.560;2023-12-20T04:22:21;97545.78;;;2.61;67.18
45327;BME280;31062;49.678;24.560;2023-12-20T04:25:26;97556.16;;;2.62;66.74
45327;BME280;31062;49.678;24.560;2023-12-20T04:28:32;97564.00;;;2.58;66.67
45327;BME280;31062;49.678;24.560;2023-12-20T04:31:39;97563.63;;;2.54;66.67
45327;BME280;31062;49.678;24.560;2023-12-20T04:34:45;97560.34;;;2.56;67.03
45327;BME280;31062;49.678;24.560;2023-12-20T04:37:50;97514.56;;;2.28;66.60
45327;BME280;31062;49.678;24.560;2023-12-20T04:40:57;97559.25;;;2.59;66.99
45327;BME280;31062;49.678;24.560;2023-12-20T04:44:03;97552.00;;;2.61;67.14
45327;BME280;31062;49.678;24.560;2023-12-20T04:47:09;97548.69;;;2.63;67.40
45327;BME280;31062;49.678;24.560;2023-12-20T04:50:15;97554.38;;;2.65;67.22
45327;BME280;31062;49.678;24.560;2023-12-20T04:53:20;97546.91;;;2.65;66.80
45327;BME280;31062;49.678;24.560;2023-12-20T04:56:26;97544.25;;;2.52;66.37
45327;BME280;31062;49.678;24.560;2023-12-20T04:59:32;97553.06;;;2.30;67.21
45327;BME280;31062;49.678;24.560;2023-12-20T05:02:38;97552.31;;;2.09;67.97
45327;BME280;31062;49.678;24.560;2023-12-20T05:05:45;97542.06;;;2.01;68.23
45327;BME280;31062;49.678;24.560;2023-12-20T05:08:53;97541.72;;;2.05;68.06
45327;BME280;31062;49.678;24.560;2023-12-20T05:11:58;97545.00;;;2.03;68.24
45327;BME280;31062;49.678;24.560;2023-12-20T05:15:08;97550.28;;;2.01;68.37
45327;BME280;31062;49.678;24.560;2023-12-20T05:18:14;97538.09;;;2.02;68.32
45327;BME280;31062;49.678;24.560;2023-12-20T05:21:20;97546.16;;;2.08;68.43
45327;BME280;31062;49.678;24.560;2023-12-20T05:24:26;97537.81;;;2.14;68.57
45327;BME280;31062;49.678;24.560;2023-12-20T05:27:31;97523.78;;;2.17;68.07
45327;BME280;31062;49.678;24.560;2023-12-20T05:30:37;97515.50;;;2.10;68.03
45327;BME280;31062;49.678;24.560;2023-12-20T05:33:44;97515.06;;;2.19;68.23
45327;BME280;31062;49.678;24.560;2023-12-20T05:36:51;97531.63;;;2.21;67.86
45327;BME280;31062;49.678;24.560;2023-12-20T05:39:56;97510.25;;;2.12;67.43
45327;BME280;31062;49.678;24.560;2023-12-20T05:43:03;97525.63;;;2.22;67.76
45327;BME280;31062;49.678;24.560;2023-12-20T05:46:10;97532.97;;;2.27;67.76
45327;BME280;31062;49.678;24.560;2023-12-20T05:49:15;97529.91;;;2.31;67.61
45327;BME280;31062;49.678;24.560;2023-12-20T05:52:21;97524.75;;;2.27;67.56
45327;BME280;31062;49.678;24.560;2023-12-20T05:55:27;97529.09;;;2.23;67.50
45327;BME280;31062;49.678;24.560;2023-12-20T05:58:33;97523.63;;;2.23;68.14
45327;BME280;31062;49.678;24.560;2023-12-20T06:01:39;97523.63;;;2.23;68.02
45327;BME280;31062;49.678;24.560;2023-12-20T06:04:45;97503.03;;;2.22;67.73
45327;BME280;31062;49.678;24.560;2023-12-20T06:07:52;97509.09;;;2.28;68.43
45327;BME280;31062;49.678;24.560;2023-12-20T06:10:57;97501.75;;;2.23;68.01
45327;BME280;31062;49.678;24.560;2023-12-20T06:14:05;97503.63;;;2.28;68.30
45327;BME280;31062;49.678;24.560;2023-12-20T06:17:12;97497.09;;;2.31;68.84
45327;BME280;31062;49.678;24.560;2023-12-20T06:20:18;97498.41;;;2.37;68.26
45327;BME280;31062;49.678;24.560;2023-12-20T06:23:24;97499.31;;;2.40;68.48
45327;BME280;31062;49.678;24.560;2023-12-20T06:26:29;97509.00;;;2.41;68.21
45327;BME280;31062;49.678;24.560;2023-12-20T06:29:35;97490.94;;;2.38;68.45
45327;BME280;31062;49.678;24.560;2023-12-20T06:32:41;97492.38;;;2.39;67.99
45327;BME280;31062;49.678;24.560;2023-12-20T06:35:47;97508.03;;;2.31;67.93
45327;BME280;31062;49.678;24.560;2023-12-20T06:38:33;97496.88;;;2.29;68.29
45327;BME280;31062;49.678;24.560;2023-12-20T06:41:19;97502.13;;;2.27;68.53
45327;BME280;31062;49.678;24.560;2023-12-20T06:44:24;97511.63;;;2.26;68.39
45327;BME280;31062;49.678;24.560;2023-12-20T06:47:30;97501.38;;;2.19;68.79
45327;BME280;31062;49.678;24.560;2023-12-20T06:50:35;97514.16;;;2.24;68.96
45327;BME280;31062;49.678;24.560;2023-12-20T06:53:42;97506.84;;;2.19;69.07
45327;BME280;31062;49.678;24.560;2023-12-20T06:56:49;97512.38;;;2.26;69.32
45327;BME280;31062;49.678;24.560;2023-12-20T06:59:55;97501.66;;;2.36;69.17
45327;BME280;31062;49.678;24.560;2023-12-20T07:03:00;97492.78;;;2.43;69.83
45327;BME280;31062;49.678;24.560;2023-12-20T07:05:47;97496.84;;;2.57;69.91
45327;BME280;31062;49.678;24.560;2023-12-20T07:08:33;97495.84;;;2.75;70.07
45327;BME280;31062;49.678;24.560;2023-12-20T07:11:18;97504.19;;;3.06;69.48
45327;BME280;31062;49.678;24.560;2023-12-20T07:14:04;97504.81;;;3.35;69.29
45327;BME280;31062;49.678;24.560;2023-12-20T07:16:51;97506.00;;;3.62;68.69
45327;BME280;31062;49.678;24.560;2023-12-20T07:19:37;97503.47;;;3.87;68.93
45327;BME280;31062;49.678;24.560;2023-12-20T07:22:24;97503.09;;;4.13;68.38
45327;BME280;31062;49.678;24.560;2023-12-20T07:25:10;97508.19;;;4.39;67.48
45327;BME280;31062;49.678;24.560;2023-12-20T07:28:16;97421.91;;;4.02;66.95
45327;BME280;31062;49.678;24.560;2023-12-20T07:31:22;97500.78;;;4.72;66.40
45327;BME280;31062;49.678;24.560;2023-12-20T07:34:28;97510.47;;;4.81;66.18
45327;BME280;31062;49.678;24.560;2023-12-20T07:37:33;97490.66;;;4.90;66.42
45327;BME280;31062;49.678;24.560;2023-12-20T07:40:39;97489.66;;;5.10;65.62
45327;BME280;31062;49.678;24.560;2023-12-20T07:43:45;97490.38;;;5.18;65.56
45327;BME280;31062;49.678;24.560;2023-12-20T07:46:51;97495.78;;;5.33;65.07
45327;BME280;31062;49.678;24.560;2023-12-20T07:49:56;97492.78;;;5.47;64.78
45327;BME280;31062;49.678;24.560;2023-12-20T07:53:02;97484.28;;;5.60;65.00
45327;BME280;31062;49.678;24.560;2023-12-20T07:56:16;97481.72;;;5.79;63.62
45327;BME280;31062;49.678;24.560;2023-12-20T07:59:22;97466.50;;;5.78;63.26
45327;BME280;31062;49.678;24.560;2023-12-20T08:02:27;97488.00;;;6.04;62.51
45327;BME280;31062;49.678;24.560;2023-12-20T08:05:34;97454.66;;;6.00;62.28
45327;BME280;31062;49.678;24.560;2023-12-20T08:08:40;97474.94;;;6.30;62.13
45327;BME280;31062;49.678;24.560;2023-12-20T08:11:51;97468.16;;;6.48;61.71
45327;BME280;31062;49.678;24.560;2023-12-20T08:14:57;97467.81;;;6.61;61.42
45327;BME280;31062;49.678;24.560;2023-12-20T08:18:03;97474.31;;;6.73;61.14
45327;BME280;31062;49.678;24.560;2023-12-20T08:21:09;97464.81;;;6.84;61.08
45327;BME280;31062;49.678;24.560;2023-12-20T08:24:16;97473.44;;;6.97;60.72
45327;BME280;31062;49.678;24.560;2023-12-20T08:27:22;97463.38;;;7.10;60.42
45327;BME280;31062;49.678;24.560;2023-12-20T08:30:28;97449.75;;;7.12;60.16
45327;BME280;31062;49.678;24.560;2023-12-20T08:33:34;97462.66;;;7.36;59.64
45327;BME280;31062;49.678;24.560;2023-12-20T08:36:40;97453.88;;;7.47;59.03
45327;BME280;31062;49.678;24.560;2023-12-20T08:39:46;97449.72;;;7.56;58.84
45327;BME280;31062;49.678;24.560;2023-12-20T08:42:51;97459.31;;;7.64;59.13
45327;BME280;31062;49.678;24.560;2023-12-20T08:45:57;97455.56;;;7.69;58.96
45327;BME280;31062;49.678;24.560;2023-12-20T08:49:03;97454.41;;;7.72;58.54
45327;BME280;31062;49.678;24.560;2023-12-20T08:52:10;97451.09;;;7.74;58.85
45327;BME280;31062;49.678;24.560;2023-12-20T08:55:15;97451.81;;;7.74;58.36
45327;BME280;31062;49.678;24.560;2023-12-20T08:58:21;97449.50;;;7.80;58.80
45327;BME280;31062;49.678;24.560;2023-12-20T09:01:27;97456.47;;;7.82;58.14
45327;BME280;31062;49.678;24.560;2023-12-20T09:04:33;97454.16;;;7.88;58.31
45327;BME280;31062;49.678;24.560;2023-12-20T09:07:38;97454.50;;;7.92;57.67
45327;BME280;31062;49.678;24.560;2023-12-20T09:10:44;97458.00;;;8.02;57.47
45327;BME280;31062;49.678;24.560;2023-12-20T09:13:50;97455.69;;;8.08;56.84
45327;BME280;31062;49.678;24.560;2023-12-20T09:16:56;97430.69;;;8.06;57.41
45327;BME280;31062;49.678;24.560;2023-12-20T09:20:02;97438.44;;;8.27;57.20
45327;BME280;31062;49.678;24.560;2023-12-20T09:23:09;97432.78;;;8.34;57.02
45327;BME280;31062;49.678;24.560;2023-12-20T09:26:14;97427.56;;;8.38;56.65
45327;BME280;31062;49.678;24.560;2023-12-20T09:29:20;97420.88;;;8.41;57.15
45327;BME280;31062;49.678;24.560;2023-12-20T09:32:26;97404.63;;;8.45;56.56
45327;BME280;31062;49.678;24.560;2023-12-20T09:35:32;97353.25;;;8.13;56.74
45327;BME280;31062;49.678;24.560;2023-12-20T09:38:39;97386.00;;;8.55;56.59
45327;BME280;31062;49.678;24.560;2023-12-20T09:41:48;97405.75;;;8.62;56.30
45327;BME280;31062;49.678;24.560;2023-12-20T09:44:55;97414.06;;;8.62;54.61
45327;BME280;31062;49.678;24.560;2023-12-20T09:47:42;97382.19;;;8.60;53.23
45327;BME280;31062;49.678;24.560;2023-12-20T09:50:30;97363.63;;;8.51;52.94
45327;BME280;31062;49.678;24.560;2023-12-20T09:53:19;97371.44;;;8.65;52.96
45327;BME280;31062;49.678;24.560;2023-12-20T09:56:08;97371.72;;;8.69;52.66
45327;BME280;31062;49.678;24.560;2023-12-20T09:58:54;97366.94;;;8.69;51.47
45327;BME280;31062;49.678;24.560;2023-12-20T10:01:40;97359.94;;;8.68;51.83
45327;BME280;31062;49.678;24.560;2023-12-20T10:04:27;97357.78;;;8.67;51.23
45327;BME280;31062;49.678;24.560;2023-12-20T10:07:15;97354.84;;;8.65;51.87
45327;BME280;31062;49.678;24.560;2023-12-20T10:10:01;97348.59;;;8.64;51.55
45327;BME280;31062;49.678;24.560;2023-12-20T10:13:06;97337.53;;;8.64;51.47
45327;BME280;31062;49.678;24.560;2023-12-20T10:15:55;97347.91;;;8.64;51.53
45327;BME280;31062;49.678;24.560;2023-12-20T10:18:41;97352.81;;;8.65;51.75
45327;BME280;31062;49.678;24.560;2023-12-20T10:21:27;97340.03;;;8.70;51.36
45327;BME280;31062;49.678;24.560;2023-12-20T10:24:19;97348.59;;;8.74;52.06
45327;BME280;31062;49.678;24.560;2023-12-20T10:27:06;97331.00;;;8.79;51.43
45327;BME280;31062;49.678;24.560;2023-12-20T10:29:52;97336.34;;;8.86;51.23
45327;BME280;31062;49.678;24.560;2023-12-20T10:32:39;97339.09;;;8.96;51.93
45327;BME280;31062;49.678;24.560;2023-12-20T10:35:24;97323.34;;;9.08;50.87
45327;BME280;31062;49.678;24.560;2023-12-20T10:38:12;97218.53;;;8.50;50.68
45327;BME280;31062;49.678;24.560;2023-12-20T10:41:01;97266.31;;;9.03;50.84
45327;BME280;31062;49.678;24.560;2023-12-20T10:44:10;97311.81;;;9.42;50.70
45327;BME280;31062;49.678;24.560;2023-12-20T10:47:16;97295.31;;;9.54;49.82
45327;BME280;31062;49.678;24.560;2023-12-20T10:50:26;97286.69;;;9.60;49.52
45327;BME280;31062;49.678;24.560;2023-12-20T10:53:33;97288.94;;;9.73;49.28
45327;BME280;31062;49.678;24.560;2023-12-20T10:56:39;97281.94;;;9.72;49.21
45327;BME280;31062;49.678;24.560;2023-12-20T10:59:46;97285.63;;;9.86;48.14
45327;BME280;31062;49.678;24.560;2023-12-20T11:02:55;97286.34;;;9.87;48.42
45327;BME280;31062;49.678;24.560;2023-12-20T11:09:36;97276.00;;;9.87;48.72
45327;BME280;31062;49.678;24.560;2023-12-20T11:12:50;97269.28;;;9.90;48.61
45327;BME280;31062;49.678;24.560;2023-12-20T11:15:59;97253.66;;;9.95;48.88
45327;BME280;31062;49.678;24.560;2023-12-20T11:19:07;97243.09;;;10.03;49.03
45327;BME280;31062;49.678;24.560;2023-12-20T11:22:14;97248.56;;;10.12;49.21
45327;BME280;31062;49.678;24.560;2023-12-20T11:25:26;97236.69;;;10.21;48.77
45327;BME280;31062;49.678;24.560;2023-12-20T11:28:32;97239.13;;;10.27;47.99
45327;BME280;31062;49.678;24.560;2023-12-20T11:31:40;97137.78;;;9.68;48.09
45327;BME280;31062;49.678;24.560;2023-12-20T11:34:46;97230.72;;;10.37;48.05
45327;BME280;31062;49.678;24.560;2023-12-20T11:37:52;97222.53;;;10.39;48.53
45327;BME280;31062;49.678;24.560;2023-12-20T11:40:38;97221.06;;;10.38;47.60
45327;BME280;31062;49.678;24.560;2023-12-20T11:43:52;97222.66;;;10.41;48.24
45327;BME280;31062;49.678;24.560;2023-12-20T11:46:39;97226.97;;;10.44;48.78
45327;BME280;31062;49.678;24.560;2023-12-20T11:49:24;97224.09;;;10.42;49.36
45327;BME280;31062;49.678;24.560;2023-12-20T11:52:12;97176.44;;;10.10;49.75
45327;BME280;31062;49.678;24.560;2023-12-20T11:55:18;97226.75;;;10.40;50.12
45327;BME280;31062;49.678;24.560;2023-12-20T11:58:25;97219.63;;;10.37;50.44
45327;BME280;31062;49.678;24.560;2023-12-20T12:01:33;97222.53;;;10.39;50.76
45327;BME280;31062;49.678;24.560;2023-12-20T12:04:42;97220.97;;;10.36;50.66
45327;BME280;31062;49.678;24.560;2023-12-20T12:07:48;97212.38;;;10.32;50.87
45327;BME280;31062;49.678;24.560;2023-12-20T12:10:54;97203.81;;;10.28;50.81
45327;BME280;31062;49.678;24.560;2023-12-20T12:14:00;97197.91;;;10.21;51.30
45327;BME280;31062;49.678;24.560;2023-12-20T12:17:13;97203.22;;;10.17;50.39
45327;BME280;31062;49.678;24.560;2023-12-20T12:20:22;97192.53;;;10.02;51.14
45327;BME280;31062;49.678;24.560;2023-12-20T12:23:28;97194.53;;;9.90;51.29
45327;BME280;31062;49.678;24.560;2023-12-20T12:26:34;97192.09;;;9.84;51.59
45327;BME280;31062;49.678;24.560;2023-12-20T12:29:40;97181.38;;;9.79;51.70
45327;BME280;31062;49.678;24.560;2023-12-20T12:32:47;97192.19;;;9.75;51.58
45327;BME280;31062;49.678;24.560;2023-12-20T12:35:54;97204.19;;;9.68;51.35
45327;BME280;31062;49.678;24.560;2023-12-20T12:39:02;97196.97;;;9.63;51.53
45327;BME280;31062;49.678;24.560;2023-12-20T12:42:08;97198.13;;;9.60;52.33
45327;BME280;31062;49.678;24.560;2023-12-20T12:45:13;97200.16;;;9.59;52.20
45327;BME280;31062;49.678;24.560;2023-12-20T12:48:20;97196.69;;;9.59;52.13
45327;BME280;31062;49.678;24.560;2023-12-20T12:51:29;97186.28;;;9.48;51.41
45327;BME280;31062;49.678;24.560;2023-12-20T12:54:14;97210.78;;;9.41;51.18
45327;BME280;31062;49.678;24.560;2023-12-20T12:57:01;97211.19;;;9.26;51.12
45327;BME280;31062;49.678;24.560;2023-12-20T12:59:48;97208.19;;;9.13;51.03
45327;BME280;31062;49.678;24.560;2023-12-20T13:02:34;97212.47;;;9.04;51.05
45327;BME280;31062;49.678;24.560;2023-12-20T13:05:19;97218.66;;;8.93;52.09
45327;BME280;31062;49.678;24.560;2023-12-20T13:08:06;97229.00;;;8.83;51.80
45327;BME280;31062;49.678;24.560;2023-12-20T13:10:52;97238.22;;;8.76;52.20
45327;BME280;31062;49.678;24.560;2023-12-20T13:13:38;97234.47;;;8.62;50.75
45327;BME280;31062;49.678;24.560;2023-12-20T13:16:24;97226.66;;;8.48;51.47
45327;BME280;31062;49.678;24.560;2023-12-20T13:19:10;97231.91;;;8.35;51.46
45327;BME280;31062;49.678;24.560;2023-12-20T13:22:16;97232.06;;;8.27;51.77
45327;BME280;31062;49.678;24.560;2023-12-20T13:25:22;97226.69;;;8.19;52.56
45327;BME280;31062;49.678;24.560;2023-12-20T13:28:27;97235.13;;;8.12;53.34
45327;BME280;31062;49.678;24.560;2023-12-20T13:31:33;97251.25;;;8.06;53.85
45327;BME280;31062;49.678;24.560;2023-12-20T13:34:39;97199.00;;;7.69;54.08
45327;BME280;31062;49.678;24.560;2023-12-20T13:37:45;97259.25;;;8.02;54.47
45327;BME280;31062;49.678;24.560;2023-12-20T13:40:51;97264.94;;;8.04;54.12
45327;BME280;31062;49.678;24.560;2023-12-20T13:43:57;97259.53;;;8.06;53.74
45327;BME280;31062;49.678;24.560;2023-12-20T13:47:02;97270.91;;;8.10;53.83
45327;BME280;31062;49.678;24.560;2023-12-20T13:50:09;97264.34;;;8.05;54.16
45327;BME280;31062;49.678;24.560;2023-12-20T13:53:15;97287.72;;;8.14;54.46
45327;BME280;31062;49.678;24.560;2023-12-20T13:56:21;97274.09;;;8.16;54.45
45327;BME280;31062;49.678;24.560;2023-12-20T13:59:41;97274.09;;;8.16;54.82
45327;BME280;31062;49.678;24.560;2023-12-20T14:02:51;97278.16;;;8.15;54.83
45327;BME280;31062;49.678;24.560;2023-12-20T14:05:57;97275.25;;;8.13;54.89
45327;BME280;31062;49.678;24.560;2023-12-20T14:09:03;97259.84;;;8.10;55.39
45327;BME280;31062;49.678;24.560;2023-12-20T14:12:08;97273.34;;;8.06;55.45
45327;BME280;31062;49.678;24.560;2023-12-20T14:15:14;97272.50;;;8.03;55.67
45327;BME280;31062;49.678;24.560;2023-12-20T14:18:21;97271.47;;;7.99;55.54
45327;BME280;31062;49.678;24.560;2023-12-20T14:21:27;97261.31;;;7.92;55.77
45327;BME280;31062;49.678;24.560;2023-12-20T14:24:33;97265.06;;;7.87;56.07
45327;BME280;31062;49.678;24.560;2023-12-20T14:27:42;97263.03;;;7.77;56.55
45327;BME280;31062;49.678;24.560;2023-12-20T14:30:51;97279.75;;;7.79;56.80
45327;BME280;31062;49.678;24.560;2023-12-20T14:33:57;97281.78;;;7.79;56.92
45327;BME280;31062;49.678;24.560;2023-12-20T14:37:03;97278.88;;;7.77;56.95
45327;BME280;31062;49.678;24.560;2023-12-20T14:40:10;97264.03;;;7.63;57.06
45327;BME280;31062;49.678;24.560;2023-12-20T14:43:16;97275.25;;;7.74;57.66
45327;BME280;31062;49.678;24.560;2023-12-20T14:46:22;97276.56;;;7.73;57.41
45327;BME280;31062;49.678;24.560;2023-12-20T14:49:27;97276.09;;;7.67;57.99
45327;BME280;31062;49.678;24.560;2023-12-20T14:52:33;97289.75;;;7.65;58.50
45327;BME280;31062;49.678;24.560;2023-12-20T14:55:39;97282.47;;;7.60;58.65
45327;BME280;31062;49.678;24.560;2023-12-20T14:58:45;97285.25;;;7.60;59.55
45327;BME280;31062;49.678;24.560;2023-12-20T15:01:51;97275.22;;;7.55;59.55
45327;BME280;31062;49.678;24.560;2023-12-20T15:04:58;97282.72;;;7.45;60.04
45327;BME280;31062;49.678;24.560;2023-12-20T15:08:04;97286.19;;;7.36;60.58
45327;BME280;31062;49.678;24.560;2023-12-20T15:11:10;97289.41;;;7.32;60.79
45327;BME280;31062;49.678;24.560;2023-12-20T15:14:16;97224.53;;;6.85;61.27
45327;BME280;31062;49.678;24.560;2023-12-20T15:17:22;97289.97;;;7.31;61.19
45327;BME280;31062;49.678;24.560;2023-12-20T15:20:28;97284.56;;;7.23;61.42
45327;BME280;31062;49.678;24.560;2023-12-20T15:23:34;97297.59;;;7.13;62.01
45327;BME280;31062;49.678;24.560;2023-12-20T15:26:39;97274.75;;;6.93;62.41
45327;BME280;31062;49.678;24.560;2023-12-20T15:29:26;97291.91;;;7.02;63.01
45327;BME280;31062;49.678;24.560;2023-12-20T15:32:32;97290.16;;;6.96;63.16
45327;BME280;31062;49.678;24.560;2023-12-20T15:35:37;97298.09;;;6.92;63.40
45327;BME280;31062;49.678;24.560;2023-12-20T15:38:43;97303.13;;;6.86;63.95
45327;BME280;31062;49.678;24.560;2023-12-20T15:41:49;97309.16;;;6.75;64.38
45327;BME280;31062;49.678;24.560;2023-12-20T15:44:54;97308.13;;;6.71;64.80
45327;BME280;31062;49.678;24.560;2023-12-20T15:48:00;97308.09;;;6.61;65.16
45327;BME280;31062;49.678;24.560;2023-12-20T15:51:07;97327.84;;;6.67;65.60
45327;BME280;31062;49.678;24.560;2023-12-20T15:54:13;97328.50;;;6.58;66.10
45327;BME280;31062;49.678;24.560;2023-12-20T15:57:18;97333.38;;;6.50;66.92
45327;BME280;31062;49.678;24.560;2023-12-20T16:00:36;97319.13;;;6.44;67.59
45327;BME280;31062;49.678;24.560;2023-12-20T16:03:42;97317.06;;;6.35;68.21
45327;BME280;31062;49.678;24.560;2023-12-20T16:06:48;97322.72;;;6.37;68.20
45327;BME280;31062;49.678;24.560;2023-12-20T16:09:54;97322.88;;;6.39;68.32
45327;BME280;31062;49.678;24.560;2023-12-20T16:12:59;97327.63;;;6.38;68.53
45327;BME280;31062;49.678;24.560;2023-12-20T16:16:05;97321.81;;;6.34;68.85